• Join FlightAware (Why Join?)
  • Login
  • US Flag 
09:49AM EST


 

Airport Tracker/Info


-or-


 

Live Flight TrackerFlight Track Log ✈ AWI3642 ✈ 19-May-2013 ✈ KBTV - KPHL

Flight Track Log - Related Links

Times and Time Zones

All times are in EDT time to prevent confusion due to time zone crossing. See the AWI3642 flight status page for this flight to view local times or setup timezone preferences in your user account.

Time Position Orientation Groundspeed Altitude Reporting Facility
EDT Latitude Longitude Course Direction KTS MPH feet Rate Location/Type
06:45PM 44.1733 -73.2574 196° South  Level FlightAware Approximate
06:45PM 44.3092 -73.1653 196° South 242 278 8,600  Level Boston Center
06:46PM 44.0758 -73.2964 196° South  Level FlightAware Approximate
06:46PM 44.2358 -73.1964 197° South 267 307 10,000  Level Boston Center
06:47PM 43.9783 -73.3354 196° South  Level FlightAware Approximate
06:47PM 44.1461 -73.2328 196° South 310 357 11,800  Level Boston Center
06:48PM 43.8807 -73.3738 195° South  Level FlightAware Approximate
06:48PM 44.0542 -73.2719 197° South 330 380 13,800  Level Boston Center
06:49PM 43.7827 -73.4100 195° South  Level FlightAware Approximate
06:49PM 43.9642 -73.3083 196° South 345 397 15,500  Level Boston Center
06:50PM 43.8722 -73.3472 197° South 345 397 16,800 1,200 Climbing Boston Center
06:51PM 43.7761 -73.3889 197° South 351 404 17,900 1,200 Climbing Boston Center
06:52PM 43.6883 -73.4250 197° South 361 415 19,200 1,200 Climbing Boston Center
06:53PM 43.5817 -73.4661 196° South 361 415 20,300 900 Climbing Boston Center
06:54PM 43.5022 -73.4964 195° South 361 415 21,100 840 Climbing Boston Center
06:55PM 43.3786 -73.5483 197° South 373 429 22,000 420 Climbing Boston Center
06:56PM 43.2658 -73.5947 197° South 397 457 22,000  Level Boston Center
06:57PM 43.1525 -73.6497 199° South 421 484 22,000  Level Boston Center
06:58PM 43.0533 -73.7783 223° Southwest 426 490 22,000  Level Boston Center
06:59PM 42.9683 -73.8958 225° Southwest 433 498 22,000  Level Boston Center
07:00PM 42.8833 -74.0156 226° Southwest 438 504 22,000  Level Boston Center
07:01PM 42.7942 -74.1350 225° Southwest 445 512 22,000  Level Boston Center
07:02PM 42.7092 -74.2486 225° Southwest 445 512 22,000  Level Boston Center
07:03PM 42.6239 -74.3644 225° Southwest 445 512 22,000  Level Boston Center
07:04PM 42.5383 -74.4803 225° Southwest 445 512 22,000  Level Boston Center
07:05PM 42.4508 -74.5983 225° Southwest 450 518 22,000  Level Boston Center
07:06PM 42.3650 -74.7133 225° Southwest 445 512 22,000  Level Boston Center
07:07PM 42.2772 -74.8281 224° Southwest 445 512 22,000 -720 Level Boston Center
07:09PM 42.1056 -75.0169 219° Southwest 426 490 20,100 -960 Descending New York Center
07:10PM 42.0261 -75.0872 213° Southwest 431 496 19,300 -600 Descending New York Center
07:11PM 41.8994 -75.1875 211° Southwest 442 509 19,000 -660 Descending New York Center
07:12PM 41.7986 -75.2700 211° Southwest 442 509 18,000 -1,140 Descending New York Center
07:13PM 41.7019 -75.3494 212° Southwest 424 488 16,800 -1,380 Descending New York Center
07:14PM 41.6203 -75.4133 210° Southwest 398 458 15,400 -1,380 Descending New York Center
07:15PM 41.5342 -75.4822 211° Southwest 382 440 14,100 -1,440 Descending New York Center
07:16PM 41.4394 -75.5583 211° Southwest 377 434 12,500 -1,080 Descending New York Center
07:17PM 41.3533 -75.6269 211° Southwest 371 427 12,000 -360 Descending New York Center
07:18PM 41.2678 -75.6842 207° Southwest 371 427 11,900 -600 Descending New York Center
07:19PM 41.1694 -75.6908 183° South 354 407 10,900 -960 Descending New York Center
07:20PM 41.0761 -75.6869 178° South 368 423 10,000 -480 Descending New York Center
07:21PM 40.9758 -75.6878 180° South 368 423 10,000  Level New York Center
07:22PM 40.8717 -75.6392 161° South 362 417 10,000  Level New York Center
07:23PM 40.7797 -75.5942 160° South 356 410 10,000  Level New York Center
07:24PM 40.6878 -75.5494 160° South 356 410 10,000 -60 Level New York Center
07:25PM 40.6022 -75.5053 159° South 349 402 9,900 -360 Descending New York Center
07:26PM 40.5347 -75.4733 160° South 296 341 9,400 -600 Descending New York Center
07:27PM 40.4692 -75.4414 160° South 257 296 8,800 -840 Descending New York Center
07:28PM 40.4100 -75.4103 158° South 247 284 7,800 -900 Descending New York Center
07:29PM 40.3433 -75.4111 181° South 237 273 7,000 -420 Descending New York Center
07:30PM 40.2778 -75.4342 195° South 232 267 7,000  Level New York Center
07:31PM 40.2231 -75.4439 188° South 219 252 7,000 -240 Level New York Center
07:32PM 40.1608 -75.4369 175° South 221 254 6,600 -540 Descending New York Center
07:33PM 40.1050 -75.4278 173° South 216 249 6,000 -300 Descending New York Center
07:34PM 40.0492 -75.4161 171° South 210 242 6,000  Level New York Center
07:35PM 39.9933 -75.4014 169° South 210 242 6,000  Level New York Center
07:36PM 39.9392 -75.4006 179° South 210 242 6,000 -120 Level New York Center
07:37PM 39.9203 -75.4614 248° West 157 181 5,800 -540 Descending New York Center
07:38PM 39.9078 -75.5122 252° West 157 181 5,000 -600 Descending New York Center
07:40PM 39.8500 -75.6333 238° Southwest 180 207 3,800 -600 Descending Philadelphia TRACON
07:41PM 39.8000 -75.6000 153° Southeast 185 213 3,000 -420 Descending Philadelphia TRACON
07:42PM 39.8167 -75.5333 72° East 185 213 3,000 -60 Level Philadelphia TRACON
07:43PM 39.8167 -75.4667 90° East 190 219 2,900 -120 Descending Philadelphia TRACON